Autopride — CQQE — position and weather

sailwx.info

Track history (hours):
 
Tides and Currents Weather Stations Pressure Air Temp Water Temp Dewpoint Dewpoint Depression Visibility Wind Speed Wind Dir Waves Ship Positions

Autopride

Last reported at 2014-Oct-30 19:11 UTC. Time now 2014-Oct-31 09:09 UTC.
Position N 36°42' E 000°00'.

Length 125 m; draft 4.8 m.

Type: Cargo ship. MMSI: 255801560.

Date/timePositionNaut miles runAvg speedWind from/ knotsBaromVisibWave heightAir tempDewpointWater temp
2014-Oct-30 19:11N 36°42' E 000°00'812.4
2014-Oct-30 18:32N 36°43' E 000°10'1212.3
2014-Oct-30 17:32N 36°44' E 000°25'1212.1
2014-Oct-30 16:32N 36°45' E 000°41'1212.1
2014-Oct-30 15:33N 36°47' E 000°55'1211.7
2014-Oct-30 14:33N 36°49' E 001°10'1411.7
2014-Oct-30 13:22N 36°51' E 001°27'4612.0
2014-Oct-30 09:33N 36°57' E 002°24'  
2014-Oct-25 10:33N 37°08' E 003°60'1111.0
2014-Oct-25 09:33N 37°06' E 003°46'1111.2
2014-Oct-25 08:33N 37°05' E 003°32'1211.4
2014-Oct-25 07:28N 37°03' E 003°17'1011.4
2014-Oct-25 06:34N 37°01' E 003°04'1111.4
2014-Oct-25 05:33N 36°59' E 002°50'1111.3
2014-Oct-25 04:33N 36°57' E 002°36'1211.4
2014-Oct-25 03:32N 36°55' E 002°22'1110.7
2014-Oct-25 02:33N 36°53' E 002°09'1110.9
2014-Oct-25 01:33N 36°51' E 001°55'1110.5
2014-Oct-25 00:33N 36°50' E 001°42'1010.4
2014-Oct-24 23:33N 36°48' E 001°29'1110.6
2014-Oct-24 22:33N 36°46' E 001°16'1110.8
2014-Oct-24 21:34N 36°45' E 001°03'1111.0
2014-Oct-24 20:32N 36°43' E 000°49'1010.7
2014-Oct-24 19:34N 36°41' E 000°36'1211.4
2014-Oct-24 18:33N 36°39' E 000°22'1111.2
2014-Oct-24 17:33N 36°38' E 000°09'1110.8
2014-Oct-24 16:32N 36°36' W 000°05'1010.5
2014-Oct-24 15:33N 36°34' W 000°18'1110.6
2014-Oct-24 14:33N 36°32' W 000°31'1110.7
2014-Oct-24 13:33N 36°31' W 000°44'1010.2
2014-Oct-24 12:33N 36°29' W 000°56'1310.0
2014-Oct-24 11:12N 36°27' W 001°13'19610.9
2014-Oct-23 17:10N 36°00' W 005°13'711.3
2014-Oct-23 16:33N 35°59' W 005°22'11810.7
2014-Oct-23 05:32N 36°15' W 007°47'1010.4
2014-Oct-23 04:33N 36°18' W 007°59'1010.2
2014-Oct-23 03:33N 36°20' W 008°11'1110.4
2014-Oct-23 02:28N 36°24' W 008°25'1010.8
2014-Oct-23 01:33N 36°26' W 008°37'1110.7
2014-Oct-23 00:34N 36°29' W 008°49'1110.9
2014-Oct-22 23:31N 36°32' W 009°03'1510.6
2014-Oct-22 22:09N 36°38' W 009°20'810.9
2014-Oct-22 21:26N 36°43' W 009°27'910.6
2014-Oct-22 20:34N 36°51' W 009°33'1111.2
2014-Oct-22 19:33N 37°02' W 009°36'1111.1
2014-Oct-22 18:34N 37°13' W 009°39'1110.8
2014-Oct-22 17:33N 37°23' W 009°42'1110.9
2014-Oct-22 16:33N 37°34' W 009°45'1111.2
2014-Oct-22 15:33N 37°45' W 009°49'1111.2
2014-Oct-22 14:33N 37°56' W 009°52'1110.8
2014-Oct-22 13:33N 38°06' W 009°55'1110.7
2014-Oct-22 12:33N 38°17' W 009°58'1010.5
2014-Oct-22 11:33N 38°27' W 010°01'1110.7
2014-Oct-22 10:33N 38°38' W 010°04'1110.8
2014-Oct-22 09:33N 38°48' W 010°05'1110.7
2014-Oct-22 08:33N 38°59' W 010°03'1111.2
2014-Oct-22 07:33N 39°10' W 009°60'13911.5
2014-Oct-21 19:25N 41°24' W 009°13'  
Track history (hours):
 
Tides and Currents Weather Stations Pressure Air Temp Water Temp Dewpoint Dewpoint Depression Visibility Wind Speed Wind Dir Waves Ship Positions

Autopride

Last reported at 2014-Oct-30 19:11 UTC. Time now 2014-Oct-31 09:09 UTC.
Position N 36°42' E 000°00'.

Length 125 m; draft 4.8 m.

Type: Cargo ship. MMSI: 255801560.

Date/timePositionNaut miles runAvg speedWind from/ knotsBaromVisibWave heightAir tempDewpointWater temp
2014-Oct-30 19:11N 36°42' E 000°00'812.4
2014-Oct-30 18:32N 36°43' E 000°10'1212.3
2014-Oct-30 17:32N 36°44' E 000°25'1212.1
2014-Oct-30 16:32N 36°45' E 000°41'1212.1
2014-Oct-30 15:33N 36°47' E 000°55'1211.7
2014-Oct-30 14:33N 36°49' E 001°10'1411.7
2014-Oct-30 13:22N 36°51' E 001°27'4612.0
2014-Oct-30 09:33N 36°57' E 002°24'  
2014-Oct-25 10:33N 37°08' E 003°60'1111.0
2014-Oct-25 09:33N 37°06' E 003°46'1111.2
2014-Oct-25 08:33N 37°05' E 003°32'1211.4
2014-Oct-25 07:28N 37°03' E 003°17'1011.4
2014-Oct-25 06:34N 37°01' E 003°04'1111.4
2014-Oct-25 05:33N 36°59' E 002°50'1111.3
2014-Oct-25 04:33N 36°57' E 002°36'1211.4
2014-Oct-25 03:32N 36°55' E 002°22'1110.7
2014-Oct-25 02:33N 36°53' E 002°09'1110.9
2014-Oct-25 01:33N 36°51' E 001°55'1110.5
2014-Oct-25 00:33N 36°50' E 001°42'1010.4
2014-Oct-24 23:33N 36°48' E 001°29'1110.6
2014-Oct-24 22:33N 36°46' E 001°16'1110.8
2014-Oct-24 21:34N 36°45' E 001°03'1111.0
2014-Oct-24 20:32N 36°43' E 000°49'1010.7
2014-Oct-24 19:34N 36°41' E 000°36'1211.4
2014-Oct-24 18:33N 36°39' E 000°22'1111.2
2014-Oct-24 17:33N 36°38' E 000°09'1110.8
2014-Oct-24 16:32N 36°36' W 000°05'1010.5
2014-Oct-24 15:33N 36°34' W 000°18'1110.6
2014-Oct-24 14:33N 36°32' W 000°31'1110.7
2014-Oct-24 13:33N 36°31' W 000°44'1010.2
2014-Oct-24 12:33N 36°29' W 000°56'1310.0
2014-Oct-24 11:12N 36°27' W 001°13'19610.9
2014-Oct-23 17:10N 36°00' W 005°13'711.3
2014-Oct-23 16:33N 35°59' W 005°22'11810.7
2014-Oct-23 05:32N 36°15' W 007°47'1010.4
2014-Oct-23 04:33N 36°18' W 007°59'1010.2
2014-Oct-23 03:33N 36°20' W 008°11'1110.4
2014-Oct-23 02:28N 36°24' W 008°25'1010.8
2014-Oct-23 01:33N 36°26' W 008°37'1110.7
2014-Oct-23 00:34N 36°29' W 008°49'1110.9
2014-Oct-22 23:31N 36°32' W 009°03'1510.6
2014-Oct-22 22:09N 36°38' W 009°20'810.9
2014-Oct-22 21:26N 36°43' W 009°27'910.6
2014-Oct-22 20:34N 36°51' W 009°33'1111.2
2014-Oct-22 19:33N 37°02' W 009°36'1111.1
2014-Oct-22 18:34N 37°13' W 009°39'1110.8
2014-Oct-22 17:33N 37°23' W 009°42'1110.9
2014-Oct-22 16:33N 37°34' W 009°45'1111.2
2014-Oct-22 15:33N 37°45' W 009°49'1111.2
2014-Oct-22 14:33N 37°56' W 009°52'1110.8
2014-Oct-22 13:33N 38°06' W 009°55'1110.7
2014-Oct-22 12:33N 38°17' W 009°58'1010.5
2014-Oct-22 11:33N 38°27' W 010°01'1110.7
2014-Oct-22 10:33N 38°38' W 010°04'1110.8
2014-Oct-22 09:33N 38°48' W 010°05'1110.7
2014-Oct-22 08:33N 38°59' W 010°03'1111.2
2014-Oct-22 07:33N 39°10' W 009°60'13911.5
2014-Oct-21 19:25N 41°24' W 009°13'  

Dump ship's entire track history